Nicholas Carter

Recruteur en chef - Norwich City
20 Nov 2027
Samedi
Processus

Personnalité

Adaptabilité (9) Ambition (3) Controverse (9) Loyauté (16) Pression (5) Professionnalisme (20) Sportivité (14) Tempérament (10)

Profil

Style d'entraînement Démocratique
Diplôme Continental Pro
Détermination 5
Gestion des joueurs 9
Motivation 13
Discipline 7
Satisfaction professionnelle
100%
Fatigue
0%
Rôle Recruteur en chef
Salaire 78.3K p/s
Contrat 14.03.2028

Performance

Comportement Bon
Efficacité de l'entraînement
38%
Développement des joueurs
30%
Prévention des blessures
60%
Mise en place tactique
60%

Événements récents

A participé à une réunion de recrutement maintenant
A recommandé une cible de transfert maintenant
A participé à une réunion de recrutement maintenant
A participé à une réunion de recrutement maintenant
A participé à une réunion de recrutement 7j
A participé à une réunion de recrutement 7j
A recommandé une cible de transfert 7j
A recommandé une cible de transfert 7j

Suivi en cours

164
Joueur Club Statut Capacité Confiance Observé Dernière observation Dernier vote
Morgan Fox Wigan Athletic Perdu 110 / 108 62% 1 30.08.2027 Approuver
Dale Taylor Blackpool Actif 124 / 127 62% 1 09.08.2027 Approuver
Leonardo Mendicino Bari Actif 117 / 127 40% 1 19.07.2027 -
Mandla Mokotjo SuperSport United Actif 98 / 100 40% 1 19.07.2027 -
Riley Owen Wycombe Wanderers Actif 115 / 103 40% 3 05.07.2027 -
Gonçalo Oliveira Benfica Actif 104 / 111 40% 1 05.07.2027 -
Alphadjo Cissé Pisa Actif 127 / 121 40% 1 03.06.2027 -
Ben Gannon Doak Bournemouth Actif 134 / 150 40% 1 03.06.2027 -
Konstantin Tyukavin Arsenal Négociation 132 / 133 66% 1 01.06.2027 Approuver
Mao Hosoya Manchester City Négociation 134 / 135 90% 1 01.06.2027 -
Gorka Gorosabel Real Sociedad Actif 102 / 105 40% 2 31.05.2027 -
Sidiki Chérif Coventry City Actif 136 / 131 40% 3 31.05.2027 -
Tom Booth Crewe Alexandra Actif 111 / 106 40% 5 30.05.2027 -
Đorđe Petrović Bournemouth Actif 153 / 141 40% 9 28.05.2027 -
Josh Keeley Luton Town Actif 118 / 124 40% 6 28.05.2027 -
Mads Hermansen West Ham United Actif 137 / 133 40% 5 27.05.2027 -
Elia Boseggia Novara Actif 113 / 121 40% 1 27.05.2027 -
Kostantis Tzolakis Hull City Actif 138 / 140 40% 6 26.05.2027 -
Gianluca Saro Foggia Actif 105 / 107 40% 2 26.05.2027 -
Matteo Rizzo Cosenza Actif 105 / 121 40% 3 25.05.2027 -
Elia Summa Picerno Actif 117 / 120 40% 3 25.05.2027 -
Filip Marschall Stevenage Actif 106 / 112 40% 9 24.05.2027 -
Marco Carnesecchi Torino Actif 154 / 149 40% 8 23.05.2027 -
Luca Gemello Perugia Actif 115 / 120 40% 3 23.05.2027 -
Joel McGregor Swindon Town Actif 104 / 95 40% 1 23.05.2027 -
Cyriaque Irié Borussia Mönchengladbach Actif 118 / 130 40% 1 23.05.2027 -
Killian Cahill Leyton Orient Actif 117 / 103 40% 6 21.05.2027 -
Michael Cooper Sheffield United Actif 132 / 124 40% 3 19.05.2027 -
Joshua Oluwayemi Walsall Actif 91 / 97 40% 2 18.05.2027 -
William Rovida Pro Patria Actif 112 / 107 40% 1 18.05.2027 -
Murphy Cooper Plymouth Argyle Actif 108 / 115 40% 5 17.05.2027 -
Luke Baartman Bidvest Wits Actif 98 / 121 40% 2 16.05.2027 -
Samuele Vitale Ascoli Actif 110 / 104 40% 1 16.05.2027 -
Sam Curtis Swindon Town Actif 92 / 110 40% 1 16.05.2027 -
Francesco D'Alterio Ternana Actif 116 / 108 40% 2 14.05.2027 -
Caleb Yirenkyi Coventry City Actif 131 / 137 40% 4 12.05.2027 -
Mfundo Vilakazi Kaizer Chiefs Actif 103 / 107 40% 1 12.05.2027 -
Oumar Camara Vitoria Guimaraes Actif 125 / 130 40% 2 11.05.2027 -
Sindre Walle Egeli Nottingham Forest Actif 125 / 139 40% 2 11.05.2027 -
Niccolò Chiorra Casarano Actif 95 / 95 40% 1 04.05.2027 -
Myles Roberts Doncaster Rovers Actif 110 / 114 40% 5 03.05.2027 -
Radek Vítek Middlesbrough Actif 130 / 138 40% 5 03.05.2027 -
James Trafford Leeds United Actif 153 / 141 40% 7 01.05.2027 -
Ludovico Del Sorbo Sorrento Actif 114 / 107 40% 1 30.04.2027 -
Othmane Maamma Watford Actif 128 / 119 40% 2 29.04.2027 -
Nestory Irankunda Watford Actif 125 / 120 40% 1 29.04.2027 -
Zach Hemming Chesterfield Actif 100 / 109 40% 3 26.04.2027 -
Williams Mahlangu SuperSport United Actif 99 / 117 40% 5 25.04.2027 -
Gladson Sulemana Liberty Professionals Actif 75 / 98 40% 1 22.04.2027 -
Nathan Bishop AFC Wimbledon Actif 113 / 105 40% 4 20.04.2027 -
Ronwen Khune Black Aces Actif 85 / 110 40% 2 15.04.2027 -
Carl Rushworth Coventry City Actif 145 / 146 40% 2 13.04.2027 Plus d'infos
Fran Vieites Exeter City Actif 114 / 112 40% 3 09.04.2027 -
Harry Clarke Preston Actif 127 / 119 40% 4 06.04.2027 -
George Wickens Lincoln City Actif 120 / 124 40% 2 06.04.2027 -
Hugo Gallardo Veracruz Actif 104 / 109 40% 1 31.03.2027 -
Monty Batlhabane Polokwane City Actif 99 / 102 40% 1 26.03.2027 -
Will Dennis Milton Keynes Dons Actif 117 / 107 40% 3 25.03.2027 -
Brennan Johnson Everton Actif 144 / 149 40% 10 24.03.2027 -
Grégoire Coudert Burnley Actif 134 / 129 40% 2 23.03.2027 -
Lorenzo Palmisani Frosinone Actif 138 / 133 40% 2 20.03.2027 -
Bazoumana Touré Newcastle United Actif 127 / 132 40% 1 20.03.2027 -
Quinten Timber Crystal Palace Actif 147 / 154 40% 3 19.03.2027 -
Enzo Le Fée Sunderland Actif 140 / 131 40% 1 18.03.2027 -
Louie Barry Sheffield Wednesday Actif 115 / 131 40% 1 18.03.2027 -
Saïd El Mala Köln Actif 134 / 145 40% 2 16.03.2027 -
Chemsdine Talbi Sunderland Actif 132 / 142 40% 2 14.03.2027 -
Arthur Beroe Actif 105 / 129 40% 1 11.03.2027 -
Lukas Jensen Millwall Actif 118 / 124 40% 2 08.03.2027 -
Jordan Amissah Burton Albion Actif 93 / 113 40% 1 08.03.2027 -
Matthew Sutton Perth Glory Actif 100 / 98 40% 2 05.03.2027 -
Taye Ashby-Hammond Cheltenham Town Actif 98 / 116 40% 2 04.03.2027 -
Bento Lokomotiv Moscow Actif 119 / 133 40% 1 27.02.2027 -
Malick Fofana Sunderland Actif 135 / 155 40% 2 22.02.2027 -
Antoni Milambo Brentford Actif 144 / 135 40% 1 18.02.2027 -
James Delianov Newcastle Jets Actif 103 / 92 40% 1 17.02.2027 -
Asanele Bonani Chippa United Actif 85 / 91 40% 2 10.02.2027 -
Adam Wharton Crystal Palace Actif 148 / 157 40% 1 11.01.2027 -
Jorrel Hato Chelsea Actif 154 / 150 40% 1 07.01.2027 -
Raúl Rangel Brighton Négociation 132 / 132 66% 1 01.01.2027 -
Stanislav Agkatsev TSG Hoffenheim Négociation 132 / 133 66% 1 01.01.2027 -
Adnan Carrasco FC Nantes Négociation 153 / 156 77% 1 01.01.2027 -
Bitello Empoli Actif 135 / 135 68% 1 01.01.2027 Approuver
Taiwo Awoniyi Coventry City Actif 147 / 137 40% 5 29.12.2026 -
Jean-Philippe Mateta Crystal Palace Actif 155 / 151 40% 3 29.12.2026 -
Thiago Brentford Actif 139 / 148 40% 6 28.12.2026 -
Igor Jesus Nottingham Forest Actif 144 / 148 40% 7 27.12.2026 -
Ammar Ramadan DAC Dunajska Streda Actif 120 / 119 40% 1 27.12.2026 -
Dara O'Shea Ipswich Town Actif 134 / 136 40% 1 27.12.2026 -
Luke McNally Bristol City Actif 136 / 121 40% 1 27.12.2026 -
André Wolverhampton Actif 151 / 148 40% 1 23.12.2026 -
Rico Lewis Manchester City Actif 160 / 142 40% 1 23.12.2026 -
Keinan Davis Udinese Actif 134 / 135 40% 1 23.12.2026 -
Ismaïla Sarr Crystal Palace Actif 155 / 152 40% 5 22.12.2026 -
Liam Delap Nottingham Forest Actif 143 / 154 40% 1 22.12.2026 -
Tommy Conway Middlesbrough Actif 138 / 131 40% 2 19.12.2026 -
Zeki Amdouni Burnley Actif 120 / 138 40% 1 18.12.2026 -
Daniel Awuni Aduana Stars Actif 90 / 95 40% 1 15.12.2026 -
Nico O'Reilly Manchester City Actif 141 / 154 40% 1 15.12.2026 -
Callum Doyle Wrexham Actif 123 / 127 40% 1 12.12.2026 -
Ethan Galbraith Swansea City Actif 124 / 127 40% 1 12.12.2026 -
Aune Heggebø West Bromwich Albion Actif 129 / 118 40% 2 11.12.2026 -
Iliman N'Diaye Everton Actif 168 / 155 40% 2 09.12.2026 -
Wilson Isidor Sunderland Actif 148 / 144 40% 1 09.12.2026 -
Kevin Schade Brentford Actif 147 / 145 40% 5 07.12.2026 -
Bradley Zwane SuperSport United Actif 100 / 110 40% 1 06.12.2026 -
Gianluca Scamacca Atalanta Actif 158 / 140 40% 1 04.12.2026 -
Tyrese Campbell Sheffield United Actif 117 / 133 40% 2 03.12.2026 -
Breel Embolo Atlanta United FC Actif 122 / 126 40% 3 01.12.2026 -
Eddie Nketiah Crystal Palace Actif 136 / 145 40% 3 30.11.2026 -
Yousef Salech Cardiff City Actif 115 / 118 40% 1 30.11.2026 -
Rumarn Burrell Queens Park Rangers Actif 115 / 115 40% 2 29.11.2026 -
Talles Magno New York City Actif 144 / 137 40% 4 25.11.2026 -
Joe Gelhardt Hull City Actif 130 / 132 40% 1 24.11.2026 -
Josh Sargent Toronto FC Actif 137 / 138 40% 2 22.11.2026 -
Dávid Strelec Middlesbrough Actif 129 / 136 40% 2 22.11.2026 Plus d'infos
Zian Flemming Ipswich Town Actif 121 / 138 40% 1 21.11.2026 -
Habib Diarra Sunderland Actif 133 / 142 40% 1 21.11.2026 -
Lucas Bergvall Tottenham Actif 142 / 151 40% 1 21.11.2026 -
Bobby Clark Derby County Actif 123 / 131 40% 1 18.11.2026 -
Morgan Guilavogui Real Salt Lake Actif 139 / 117 40% 2 17.11.2026 -
Cameron Archer Southampton Actif 116 / 118 40% 1 16.11.2026 -
Sam Surridge Leeds United Actif 124 / 122 40% 2 14.11.2026 -
Jesus Ferreira Seattle Sounders Actif 144 / 143 40% 2 12.11.2026 -
Dango Ouattara Brentford Actif 138 / 144 40% 3 09.11.2026 -
Armando Broja Burnley Actif 135 / 135 40% 2 09.11.2026 -
Gonzalo Fulham Actif 147 / 149 40% 3 05.11.2026 -
Luis Binks Brondby Actif 117 / 124 40% 1 05.11.2026 -
Jaka Bijol Leeds United Actif 151 / 148 40% 1 05.11.2026 -
Mbekezeli Mbokazi Chicago Fire Actif 136 / 134 40% 2 04.11.2026 -
Milan van Ewijk Coventry City Actif 121 / 139 40% 1 04.11.2026 -
Luca Langoni New England Revolution Actif 115 / 142 40% 2 02.11.2026 -
Rodrigo Muniz Fulham Actif 128 / 142 40% 1 01.11.2026 -
Fábio Carvalho Brentford Actif 135 / 135 40% 1 30.10.2026 -
Jay Stansfield Birmingham Actif 138 / 129 40% 1 29.10.2026 -
George Hirst Stoke City Actif 124 / 131 40% 3 26.10.2026 -
Jarrad Branthwaite Everton Actif 146 / 142 40% 1 17.10.2026 -
Max Bird Birmingham Actif 119 / 130 40% 1 16.10.2026 -
João Klauss LA Galaxy Actif 118 / 113 40% 2 15.10.2026 -
Liel Abada Charlotte Football Club Actif 118 / 126 40% 1 11.10.2026 -
Tyrell Malacia Derby County Actif 145 / 128 40% 1 11.10.2026 -
Bryan Ramírez FC Cincinnati Actif 136 / 131 40% 2 08.10.2026 -
Marin Benko Zadar Actif 113 / 112 40% 2 07.10.2026 -
Brian Brobbey Sunderland Actif 143 / 141 40% 1 29.09.2026 -
Leonardo Campana New England Revolution Actif 115 / 112 40% 2 28.09.2026 -
Kelvin Yeboah Minnesota United FC Actif 117 / 132 40% 2 27.09.2026 -
Tomás Chancalay Minnesota United FC Actif 139 / 131 40% 2 25.09.2026 -
Amine Adli Bournemouth Actif 155 / 137 40% 1 22.09.2026 -
Mateusz Bogusz Houston Dynamo Actif 119 / 116 40% 1 20.09.2026 -
Kévin Denkey FC Cincinnati Actif 117 / 134 40% 1 19.09.2026 -
Florentino Luís Ipswich Town Actif 150 / 141 40% 1 19.09.2026 -
Rafael Navarro St. Louis CITY SC Actif 117 / 123 40% 1 17.09.2026 -
Quinn Sullivan Philadelphia Union Actif 117 / 123 40% 1 15.09.2026 -
Tyler Adams Bournemouth Actif 164 / 157 40% 1 15.09.2026 -
Anton Stach Leeds United Actif 157 / 137 40% 1 14.09.2026 -
Tadeo Allende Inter Miami CF Actif 137 / 118 40% 1 14.09.2026 -
Martín Ojeda Orlando City Actif 141 / 143 40% 1 13.09.2026 -
Cody Gakpo Liverpool Actif 153 / 148 40% 1 11.09.2026 -
Troy Parrott Betis Actif 135 / 140 40% 1 10.09.2026 -
Yeremy Pino Crystal Palace Actif 139 / 146 40% 1 10.09.2026 -
Elliot Anderson Manchester City Actif 150 / 150 40% 1 08.09.2026 -
Marvin Kaleta Rotherham United Actif 90 / 111 51% 1 24.08.2026 -
Iqraam Rayners Mamelodi Sundowns Actif 113 / 125 40% 1 04.08.2026 -
Connor Barrett Walsall Actif 90 / 106 51% 1 03.08.2026 -